sensor_id;sensor_type;location;lat;lon;timestamp;P1;durP1;ratioP1;P2;durP2;ratioP2
77350;SDS011;66420;50.246;14.320;2023-02-24T00:02:09;78.55;;;37.97;;
77350;SDS011;66420;50.246;14.320;2023-02-24T00:04:57;74.13;;;33.47;;
77350;SDS011;66420;50.246;14.320;2023-02-24T00:07:42;70.47;;;33.53;;
77350;SDS011;66420;50.246;14.320;2023-02-24T00:10:27;69.05;;;32.20;;
77350;SDS011;66420;50.246;14.320;2023-02-24T00:13:12;66.53;;;30.98;;
77350;SDS011;66420;50.246;14.320;2023-02-24T00:15:58;70.88;;;32.25;;
77350;SDS011;66420;50.246;14.320;2023-02-24T00:18:44;69.55;;;31.50;;
77350;SDS011;66420;50.246;14.320;2023-02-24T00:21:28;69.28;;;31.20;;
77350;SDS011;66420;50.246;14.320;2023-02-24T00:24:13;67.13;;;31.15;;
77350;SDS011;66420;50.246;14.320;2023-02-24T00:26:59;67.43;;;31.02;;
77350;SDS011;66420;50.246;14.320;2023-02-24T00:29:45;65.72;;;30.48;;
77350;SDS011;66420;50.246;14.320;2023-02-24T00:32:30;67.70;;;31.20;;
77350;SDS011;66420;50.246;14.320;2023-02-24T00:35:15;66.15;;;30.70;;
77350;SDS011;66420;50.246;14.320;2023-02-24T00:38:00;71.13;;;31.35;;
77350;SDS011;66420;50.246;14.320;2023-02-24T00:40:45;67.95;;;32.53;;
77350;SDS011;66420;50.246;14.320;2023-02-24T00:43:31;66.93;;;31.15;;
77350;SDS011;66420;50.246;14.320;2023-02-24T00:46:21;75.15;;;31.83;;
77350;SDS011;66420;50.246;14.320;2023-02-24T00:49:11;67.45;;;30.83;;
77350;SDS011;66420;50.246;14.320;2023-02-24T00:52:01;72.03;;;31.92;;
77350;SDS011;66420;50.246;14.320;2023-02-24T00:54:49;61.88;;;30.60;;
77350;SDS011;66420;50.246;14.320;2023-02-24T00:57:34;70.85;;;32.40;;
77350;SDS011;66420;50.246;14.320;2023-02-24T01:00:18;77.40;;;34.20;;
77350;SDS011;66420;50.246;14.320;2023-02-24T01:03:03;85.93;;;35.88;;
77350;SDS011;66420;50.246;14.320;2023-02-24T01:05:48;76.93;;;36.00;;
77350;SDS011;66420;50.246;14.320;2023-02-24T01:08:32;77.00;;;35.45;;
77350;SDS011;66420;50.246;14.320;2023-02-24T01:11:21;78.97;;;36.75;;
77350;SDS011;66420;50.246;14.320;2023-02-24T01:14:27;96.15;;;40.10;;
77350;SDS011;66420;50.246;14.320;2023-02-24T01:17:15;91.43;;;38.00;;
77350;SDS011;66420;50.246;14.320;2023-02-24T01:20:01;82.45;;;34.38;;
77350;SDS011;66420;50.246;14.320;2023-02-24T01:22:59;74.53;;;31.38;;
77350;SDS011;66420;50.246;14.320;2023-02-24T01:25:46;74.72;;;31.83;;
77350;SDS011;66420;50.246;14.320;2023-02-24T01:28:31;72.70;;;31.67;;
77350;SDS011;66420;50.246;14.320;2023-02-24T01:31:15;74.88;;;31.25;;
77350;SDS011;66420;50.246;14.320;2023-02-24T01:34:04;64.35;;;29.05;;
77350;SDS011;66420;50.246;14.320;2023-02-24T01:36:53;68.18;;;30.80;;
77350;SDS011;66420;50.246;14.320;2023-02-24T01:39:38;59.40;;;28.40;;
77350;SDS011;66420;50.246;14.320;2023-02-24T01:42:22;63.10;;;27.58;;
77350;SDS011;66420;50.246;14.320;2023-02-24T01:45:11;64.28;;;28.42;;
77350;SDS011;66420;50.246;14.320;2023-02-24T01:47:59;65.07;;;29.27;;
77350;SDS011;66420;50.246;14.320;2023-02-24T01:50:48;69.82;;;29.05;;
77350;SDS011;66420;50.246;14.320;2023-02-24T01:53:34;68.85;;;31.10;;
77350;SDS011;66420;50.246;14.320;2023-02-24T01:56:19;106.63;;;44.70;;
77350;SDS011;66420;50.246;14.320;2023-02-24T01:59:04;100.63;;;41.60;;
77350;SDS011;66420;50.246;14.320;2023-02-24T02:01:49;87.95;;;36.83;;
77350;SDS011;66420;50.246;14.320;2023-02-24T02:04:45;84.80;;;36.58;;
77350;SDS011;66420;50.246;14.320;2023-02-24T02:07:33;87.35;;;39.78;;
77350;SDS011;66420;50.246;14.320;2023-02-24T02:10:22;83.72;;;38.30;;
77350;SDS011;66420;50.246;14.320;2023-02-24T02:13:07;84.97;;;38.78;;
77350;SDS011;66420;50.246;14.320;2023-02-24T02:15:56;78.68;;;35.05;;
77350;SDS011;66420;50.246;14.320;2023-02-24T02:19:08;77.93;;;33.45;;
77350;SDS011;66420;50.246;14.320;2023-02-24T02:35:56;74.22;;;34.45;;
77350;SDS011;66420;50.246;14.320;2023-02-24T02:38:51;81.28;;;34.53;;
77350;SDS011;66420;50.246;14.320;2023-02-24T02:50:53;62.75;;;27.60;;
77350;SDS011;66420;50.246;14.320;2023-02-24T02:56:53;49.92;;;22.48;;
77350;SDS011;66420;50.246;14.320;2023-02-24T02:59:44;49.40;;;22.67;;
77350;SDS011;66420;50.246;14.320;2023-02-24T03:02:35;39.85;;;19.00;;
77350;SDS011;66420;50.246;14.320;2023-02-24T03:05:26;38.53;;;18.38;;
77350;SDS011;66420;50.246;14.320;2023-02-24T03:08:17;34.92;;;17.00;;
77350;SDS011;66420;50.246;14.320;2023-02-24T03:11:08;34.10;;;14.57;;
77350;SDS011;66420;50.246;14.320;2023-02-24T03:13:57;26.75;;;12.50;;
77350;SDS011;66420;50.246;14.320;2023-02-24T03:16:46;22.20;;;10.75;;
77350;SDS011;66420;50.246;14.320;2023-02-24T03:19:33;20.17;;;9.43;;
77350;SDS011;66420;50.246;14.320;2023-02-24T03:22:24;20.50;;;9.10;;
77350;SDS011;66420;50.246;14.320;2023-02-24T03:25:22;17.23;;;9.23;;
77350;SDS011;66420;50.246;14.320;2023-02-24T03:28:13;18.67;;;8.82;;
77350;SDS011;66420;50.246;14.320;2023-02-24T03:34:02;20.25;;;8.88;;
77350;SDS011;66420;50.246;14.320;2023-02-24T03:36:55;18.23;;;7.85;;
77350;SDS011;66420;50.246;14.320;2023-02-24T03:39:40;21.80;;;9.27;;
77350;SDS011;66420;50.246;14.320;2023-02-24T03:42:27;15.45;;;8.00;;
77350;SDS011;66420;50.246;14.320;2023-02-24T03:45:17;17.27;;;8.20;;
77350;SDS011;66420;50.246;14.320;2023-02-24T03:48:03;20.40;;;8.77;;
77350;SDS011;66420;50.246;14.320;2023-02-24T03:50:50;18.50;;;7.90;;
77350;SDS011;66420;50.246;14.320;2023-02-24T03:53:41;13.50;;;7.65;;
77350;SDS011;66420;50.246;14.320;2023-02-24T04:02:29;18.45;;;8.43;;
77350;SDS011;66420;50.246;14.320;2023-02-24T04:05:19;18.80;;;10.13;;
77350;SDS011;66420;50.246;14.320;2023-02-24T04:08:06;22.95;;;10.73;;
77350;SDS011;66420;50.246;14.320;2023-02-24T04:11:00;22.77;;;11.88;;
77350;SDS011;66420;50.246;14.320;2023-02-24T04:14:10;22.95;;;10.93;;
77350;SDS011;66420;50.246;14.320;2023-02-24T04:17:06;27.70;;;13.02;;
77350;SDS011;66420;50.246;14.320;2023-02-24T04:20:04;23.67;;;10.63;;
77350;SDS011;66420;50.246;14.320;2023-02-24T04:23:05;22.60;;;10.68;;
77350;SDS011;66420;50.246;14.320;2023-02-24T04:25:55;19.77;;;10.35;;
77350;SDS011;66420;50.246;14.320;2023-02-24T04:28:40;18.65;;;9.63;;
77350;SDS011;66420;50.246;14.320;2023-02-24T04:31:26;21.45;;;10.25;;
77350;SDS011;66420;50.246;14.320;2023-02-24T04:34:11;21.42;;;11.30;;
77350;SDS011;66420;50.246;14.320;2023-02-24T04:37:03;21.90;;;10.50;;
77350;SDS011;66420;50.246;14.320;2023-02-24T04:39:48;28.10;;;11.45;;
77350;SDS011;66420;50.246;14.320;2023-02-24T04:42:33;26.45;;;12.85;;
77350;SDS011;66420;50.246;14.320;2023-02-24T04:45:19;25.50;;;11.98;;
77350;SDS011;66420;50.246;14.320;2023-02-24T04:48:12;27.58;;;12.48;;
77350;SDS011;66420;50.246;14.320;2023-02-24T04:50:59;25.98;;;11.75;;
77350;SDS011;66420;50.246;14.320;2023-02-24T04:53:45;24.92;;;11.52;;
77350;SDS011;66420;50.246;14.320;2023-02-24T04:56:32;29.55;;;12.27;;
77350;SDS011;66420;50.246;14.320;2023-02-24T04:59:19;24.52;;;11.52;;
77350;SDS011;66420;50.246;14.320;2023-02-24T05:02:05;23.40;;;10.85;;
77350;SDS011;66420;50.246;14.320;2023-02-24T05:04:50;19.80;;;10.07;;
77350;SDS011;66420;50.246;14.320;2023-02-24T05:07:35;20.08;;;10.25;;
77350;SDS011;66420;50.246;14.320;2023-02-24T05:10:19;21.00;;;9.70;;
77350;SDS011;66420;50.246;14.320;2023-02-24T05:13:05;23.38;;;10.73;;
77350;SDS011;66420;50.246;14.320;2023-02-24T05:15:52;21.27;;;9.90;;
77350;SDS011;66420;50.246;14.320;2023-02-24T05:18:38;25.08;;;11.75;;
77350;SDS011;66420;50.246;14.320;2023-02-24T05:21:23;23.38;;;11.35;;
77350;SDS011;66420;50.246;14.320;2023-02-24T05:24:20;20.92;;;9.80;;
77350;SDS011;66420;50.246;14.320;2023-02-24T05:27:04;23.73;;;9.30;;
77350;SDS011;66420;50.246;14.320;2023-02-24T05:29:49;18.98;;;9.07;;
77350;SDS011;66420;50.246;14.320;2023-02-24T05:32:33;20.98;;;9.60;;
77350;SDS011;66420;50.246;14.320;2023-02-24T05:35:18;18.48;;;8.93;;
77350;SDS011;66420;50.246;14.320;2023-02-24T05:38:03;20.02;;;8.75;;
77350;SDS011;66420;50.246;14.320;2023-02-24T05:40:51;19.80;;;9.40;;
77350;SDS011;66420;50.246;14.320;2023-02-24T05:43:40;18.50;;;10.38;;
77350;SDS011;66420;50.246;14.320;2023-02-24T05:46:26;22.17;;;9.82;;
77350;SDS011;66420;50.246;14.320;2023-02-24T05:49:13;19.98;;;9.05;;
77350;SDS011;66420;50.246;14.320;2023-02-24T05:52:04;31.48;;;12.48;;
77350;SDS011;66420;50.246;14.320;2023-02-24T05:54:53;19.13;;;9.63;;
77350;SDS011;66420;50.246;14.320;2023-02-24T05:57:38;20.77;;;9.88;;
77350;SDS011;66420;50.246;14.320;2023-02-24T06:00:24;21.17;;;9.55;;
77350;SDS011;66420;50.246;14.320;2023-02-24T06:03:09;18.52;;;9.52;;
77350;SDS011;66420;50.246;14.320;2023-02-24T06:05:53;21.80;;;10.10;;
77350;SDS011;66420;50.246;14.320;2023-02-24T06:08:38;22.15;;;9.82;;
77350;SDS011;66420;50.246;14.320;2023-02-24T06:11:27;18.85;;;9.13;;
77350;SDS011;66420;50.246;14.320;2023-02-24T06:14:11;21.40;;;9.02;;
77350;SDS011;66420;50.246;14.320;2023-02-24T06:16:56;21.85;;;10.93;;
77350;SDS011;66420;50.246;14.320;2023-02-24T06:19:41;21.15;;;9.77;;
77350;SDS011;66420;50.246;14.320;2023-02-24T06:22:26;26.08;;;11.15;;
77350;SDS011;66420;50.246;14.320;2023-02-24T06:25:11;23.10;;;9.63;;
77350;SDS011;66420;50.246;14.320;2023-02-24T06:27:55;16.52;;;8.85;;
77350;SDS011;66420;50.246;14.320;2023-02-24T06:30:39;19.60;;;9.95;;
77350;SDS011;66420;50.246;14.320;2023-02-24T06:33:24;18.50;;;9.40;;
77350;SDS011;66420;50.246;14.320;2023-02-24T06:36:10;20.08;;;9.40;;
77350;SDS011;66420;50.246;14.320;2023-02-24T06:38:57;18.50;;;9.65;;
77350;SDS011;66420;50.246;14.320;2023-02-24T06:41:41;18.50;;;9.13;;
77350;SDS011;66420;50.246;14.320;2023-02-24T06:44:26;21.92;;;9.35;;
77350;SDS011;66420;50.246;14.320;2023-02-24T06:47:11;14.93;;;8.40;;
77350;SDS011;66420;50.246;14.320;2023-02-24T06:49:57;18.70;;;9.98;;
77350;SDS011;66420;50.246;14.320;2023-02-24T06:52:42;18.33;;;9.40;;
77350;SDS011;66420;50.246;14.320;2023-02-24T06:55:26;19.42;;;9.15;;
77350;SDS011;66420;50.246;14.320;2023-02-24T06:58:15;20.52;;;8.98;;
77350;SDS011;66420;50.246;14.320;2023-02-24T07:01:01;19.65;;;9.23;;
77350;SDS011;66420;50.246;14.320;2023-02-24T07:03:47;17.67;;;8.77;;
77350;SDS011;66420;50.246;14.320;2023-02-24T07:06:54;20.83;;;9.00;;
77350;SDS011;66420;50.246;14.320;2023-02-24T07:09:40;22.88;;;10.23;;
77350;SDS011;66420;50.246;14.320;2023-02-24T07:12:25;22.27;;;9.45;;
77350;SDS011;66420;50.246;14.320;2023-02-24T07:15:10;18.42;;;8.98;;
77350;SDS011;66420;50.246;14.320;2023-02-24T07:17:57;18.55;;;9.32;;
77350;SDS011;66420;50.246;14.320;2023-02-24T07:20:41;19.48;;;9.02;;
77350;SDS011;66420;50.246;14.320;2023-02-24T07:23:29;16.35;;;9.48;;
77350;SDS011;66420;50.246;14.320;2023-02-24T07:26:15;18.00;;;9.23;;
77350;SDS011;66420;50.246;14.320;2023-02-24T07:29:01;32.58;;;17.20;;
77350;SDS011;66420;50.246;14.320;2023-02-24T07:31:49;21.35;;;10.30;;
77350;SDS011;66420;50.246;14.320;2023-02-24T07:34:38;20.52;;;10.35;;
77350;SDS011;66420;50.246;14.320;2023-02-24T07:37:25;18.05;;;9.20;;
77350;SDS011;66420;50.246;14.320;2023-02-24T07:40:14;21.15;;;9.52;;
77350;SDS011;66420;50.246;14.320;2023-02-24T07:43:00;18.95;;;9.57;;
77350;SDS011;66420;50.246;14.320;2023-02-24T07:45:45;19.08;;;8.80;;
77350;SDS011;66420;50.246;14.320;2023-02-24T07:48:30;18.95;;;9.60;;
77350;SDS011;66420;50.246;14.320;2023-02-24T07:51:16;18.38;;;9.13;;
77350;SDS011;66420;50.246;14.320;2023-02-24T07:54:03;20.02;;;9.63;;
77350;SDS011;66420;50.246;14.320;2023-02-24T07:56:51;17.25;;;9.15;;
77350;SDS011;66420;50.246;14.320;2023-02-24T07:59:42;16.40;;;8.55;;
77350;SDS011;66420;50.246;14.320;2023-02-24T08:02:29;17.70;;;9.75;;
77350;SDS011;66420;50.246;14.320;2023-02-24T08:05:15;19.27;;;9.75;;
77350;SDS011;66420;50.246;14.320;2023-02-24T08:08:01;19.42;;;9.07;;
77350;SDS011;66420;50.246;14.320;2023-02-24T08:10:46;17.80;;;8.57;;
77350;SDS011;66420;50.246;14.320;2023-02-24T08:13:31;18.13;;;9.50;;
77350;SDS011;66420;50.246;14.320;2023-02-24T08:16:20;16.35;;;8.65;;
77350;SDS011;66420;50.246;14.320;2023-02-24T08:19:06;17.55;;;8.68;;
77350;SDS011;66420;50.246;14.320;2023-02-24T08:21:56;16.33;;;8.93;;
77350;SDS011;66420;50.246;14.320;2023-02-24T08:24:50;18.30;;;8.75;;
77350;SDS011;66420;50.246;14.320;2023-02-24T08:27:37;18.83;;;10.00;;
77350;SDS011;66420;50.246;14.320;2023-02-24T08:30:25;19.55;;;9.18;;
77350;SDS011;66420;50.246;14.320;2023-02-24T08:33:17;17.55;;;8.82;;
77350;SDS011;66420;50.246;14.320;2023-02-24T08:36:05;17.40;;;8.40;;
77350;SDS011;66420;50.246;14.320;2023-02-24T08:38:49;18.38;;;8.05;;
77350;SDS011;66420;50.246;14.320;2023-02-24T08:41:35;17.20;;;8.38;;
77350;SDS011;66420;50.246;14.320;2023-02-24T08:44:29;16.98;;;8.63;;
77350;SDS011;66420;50.246;14.320;2023-02-24T08:47:14;16.17;;;7.78;;
77350;SDS011;66420;50.246;14.320;2023-02-24T08:50:04;14.00;;;6.95;;
77350;SDS011;66420;50.246;14.320;2023-02-24T08:52:50;12.25;;;6.05;;
77350;SDS011;66420;50.246;14.320;2023-02-24T08:55:34;14.82;;;6.20;;
77350;SDS011;66420;50.246;14.320;2023-02-24T08:58:23;9.77;;;5.38;;
77350;SDS011;66420;50.246;14.320;2023-02-24T09:01:10;15.52;;;5.97;;
77350;SDS011;66420;50.246;14.320;2023-02-24T09:04:06;11.90;;;6.30;;
77350;SDS011;66420;50.246;14.320;2023-02-24T09:06:52;10.90;;;5.30;;
77350;SDS011;66420;50.246;14.320;2023-02-24T09:09:41;10.45;;;5.50;;
77350;SDS011;66420;50.246;14.320;2023-02-24T09:12:27;10.45;;;5.45;;
77350;SDS011;66420;50.246;14.320;2023-02-24T09:15:13;9.15;;;5.20;;
77350;SDS011;66420;50.246;14.320;2023-02-24T09:17:58;9.98;;;5.05;;
77350;SDS011;66420;50.246;14.320;2023-02-24T09:20:50;11.73;;;5.03;;
77350;SDS011;66420;50.246;14.320;2023-02-24T09:23:59;12.82;;;5.18;;
77350;SDS011;66420;50.246;14.320;2023-02-24T09:26:49;8.07;;;3.92;;
77350;SDS011;66420;50.246;14.320;2023-02-24T09:29:41;9.02;;;4.10;;
77350;SDS011;66420;50.246;14.320;2023-02-24T09:32:32;11.38;;;4.40;;
77350;SDS011;66420;50.246;14.320;2023-02-24T09:35:17;7.95;;;4.63;;
77350;SDS011;66420;50.246;14.320;2023-02-24T09:38:09;6.35;;;3.42;;
77350;SDS011;66420;50.246;14.320;2023-02-24T09:40:53;7.40;;;3.35;;
77350;SDS011;66420;50.246;14.320;2023-02-24T09:43:40;6.53;;;3.00;;
77350;SDS011;66420;50.246;14.320;2023-02-24T09:46:27;4.47;;;2.75;;
77350;SDS011;66420;50.246;14.320;2023-02-24T09:49:14;5.07;;;2.20;;
77350;SDS011;66420;50.246;14.320;2023-02-24T09:52:01;3.88;;;1.95;;
77350;SDS011;66420;50.246;14.320;2023-02-24T09:54:52;3.08;;;2.05;;
77350;SDS011;66420;50.246;14.320;2023-02-24T10:01:03;3.42;;;2.22;;
77350;SDS011;66420;50.246;14.320;2023-02-24T10:07:29;9.70;;;3.92;;
77350;SDS011;66420;50.246;14.320;2023-02-24T10:10:24;7.40;;;3.67;;
77350;SDS011;66420;50.246;14.320;2023-02-24T10:13:18;9.18;;;3.88;;
77350;SDS011;66420;50.246;14.320;2023-02-24T10:16:17;6.53;;;3.42;;
77350;SDS011;66420;50.246;14.320;2023-02-24T10:19:22;5.75;;;3.35;;
77350;SDS011;66420;50.246;14.320;2023-02-24T10:25:28;8.93;;;4.35;;
77350;SDS011;66420;50.246;14.320;2023-02-24T10:28:41;7.82;;;3.88;;
77350;SDS011;66420;50.246;14.320;2023-02-24T10:31:40;8.30;;;4.20;;
77350;SDS011;66420;50.246;14.320;2023-02-24T10:34:30;6.35;;;3.50;;
77350;SDS011;66420;50.246;14.320;2023-02-24T10:37:16;5.65;;;2.42;;
77350;SDS011;66420;50.246;14.320;2023-02-24T10:40:06;4.85;;;2.53;;
77350;SDS011;66420;50.246;14.320;2023-02-24T10:43:03;4.97;;;2.10;;
77350;SDS011;66420;50.246;14.320;2023-02-24T10:45:53;3.22;;;1.95;;
77350;SDS011;66420;50.246;14.320;2023-02-24T10:48:53;7.60;;;2.13;;
77350;SDS011;66420;50.246;14.320;2023-02-24T10:51:47;6.28;;;2.10;;
77350;SDS011;66420;50.246;14.320;2023-02-24T10:54:35;5.55;;;2.80;;
77350;SDS011;66420;50.246;14.320;2023-02-24T10:57:42;5.25;;;1.85;;
77350;SDS011;66420;50.246;14.320;2023-02-24T11:00:39;4.70;;;2.10;;
77350;SDS011;66420;50.246;14.320;2023-02-24T11:03:48;5.10;;;2.20;;
77350;SDS011;66420;50.246;14.320;2023-02-24T11:07:16;8.50;;;3.10;;
77350;SDS011;66420;50.246;14.320;2023-02-24T11:13:25;8.23;;;2.83;;
77350;SDS011;66420;50.246;14.320;2023-02-24T11:16:38;7.07;;;3.00;;
77350;SDS011;66420;50.246;14.320;2023-02-24T11:19:47;8.50;;;3.13;;
77350;SDS011;66420;50.246;14.320;2023-02-24T11:22:38;7.13;;;3.22;;
77350;SDS011;66420;50.246;14.320;2023-02-24T11:25:26;6.22;;;2.90;;
77350;SDS011;66420;50.246;14.320;2023-02-24T11:37:39;6.85;;;3.05;;
77350;SDS011;66420;50.246;14.320;2023-02-24T11:40:38;6.20;;;2.95;;
77350;SDS011;66420;50.246;14.320;2023-02-24T11:43:26;6.63;;;2.53;;
77350;SDS011;66420;50.246;14.320;2023-02-24T11:46:16;4.07;;;2.17;;
77350;SDS011;66420;50.246;14.320;2023-02-24T11:49:08;4.22;;;1.88;;
77350;SDS011;66420;50.246;14.320;2023-02-24T11:52:12;4.85;;;1.85;;
77350;SDS011;66420;50.246;14.320;2023-02-24T11:54:59;4.15;;;2.00;;
77350;SDS011;66420;50.246;14.320;2023-02-24T11:57:49;4.43;;;1.85;;
77350;SDS011;66420;50.246;14.320;2023-02-24T12:00:37;5.30;;;2.25;;
77350;SDS011;66420;50.246;14.320;2023-02-24T12:07:03;4.28;;;1.88;;
77350;SDS011;66420;50.246;14.320;2023-02-24T12:10:06;6.30;;;2.22;;
77350;SDS011;66420;50.246;14.320;2023-02-24T12:13:31;4.05;;;1.88;;
77350;SDS011;66420;50.246;14.320;2023-02-24T12:16:32;4.25;;;1.80;;
77350;SDS011;66420;50.246;14.320;2023-02-24T12:19:26;3.35;;;1.67;;
77350;SDS011;66420;50.246;14.320;2023-02-24T12:22:17;5.88;;;1.88;;
77350;SDS011;66420;50.246;14.320;2023-02-24T12:25:02;6.03;;;2.03;;
77350;SDS011;66420;50.246;14.320;2023-02-24T12:27:56;5.80;;;2.17;;
77350;SDS011;66420;50.246;14.320;2023-02-24T12:31:15;6.45;;;2.40;;
77350;SDS011;66420;50.246;14.320;2023-02-24T12:38:15;6.55;;;2.22;;
77350;SDS011;66420;50.246;14.320;2023-02-24T12:41:09;6.13;;;2.17;;
77350;SDS011;66420;50.246;14.320;2023-02-24T12:47:26;4.28;;;1.85;;
77350;SDS011;66420;50.246;14.320;2023-02-24T12:54:03;7.57;;;2.08;;
77350;SDS011;66420;50.246;14.320;2023-02-24T12:59:53;5.40;;;2.50;;
77350;SDS011;66420;50.246;14.320;2023-02-24T13:06:14;4.82;;;2.33;;
77350;SDS011;66420;50.246;14.320;2023-02-24T13:09:50;8.93;;;2.58;;
77350;SDS011;66420;50.246;14.320;2023-02-24T13:15:32;7.65;;;2.30;;
77350;SDS011;66420;50.246;14.320;2023-02-24T13:18:23;5.80;;;2.30;;
77350;SDS011;66420;50.246;14.320;2023-02-24T13:21:21;5.45;;;2.20;;
77350;SDS011;66420;50.246;14.320;2023-02-24T13:24:19;6.13;;;2.10;;
77350;SDS011;66420;50.246;14.320;2023-02-24T13:29:57;6.90;;;2.03;;
77350;SDS011;66420;50.246;14.320;2023-02-24T13:32:45;7.30;;;2.30;;
77350;SDS011;66420;50.246;14.320;2023-02-24T13:35:32;6.80;;;2.28;;
77350;SDS011;66420;50.246;14.320;2023-02-24T13:38:24;5.25;;;1.95;;
77350;SDS011;66420;50.246;14.320;2023-02-24T14:02:56;7.00;;;2.40;;
77350;SDS011;66420;50.246;14.320;2023-02-24T14:05:42;7.88;;;2.70;;
77350;SDS011;66420;50.246;14.320;2023-02-24T14:11:22;9.57;;;2.50;;
77350;SDS011;66420;50.246;14.320;2023-02-24T14:17:01;4.03;;;1.85;;
77350;SDS011;66420;50.246;14.320;2023-02-24T14:19:46;6.00;;;2.33;;
77350;SDS011;66420;50.246;14.320;2023-02-24T14:22:31;7.35;;;2.50;;
77350;SDS011;66420;50.246;14.320;2023-02-24T14:25:17;6.07;;;2.30;;
77350;SDS011;66420;50.246;14.320;2023-02-24T14:28:03;5.10;;;2.38;;
77350;SDS011;66420;50.246;14.320;2023-02-24T14:30:55;4.68;;;2.13;;
77350;SDS011;66420;50.246;14.320;2023-02-24T14:33:42;5.85;;;2.20;;
77350;SDS011;66420;50.246;14.320;2023-02-24T14:36:29;4.53;;;2.00;;
77350;SDS011;66420;50.246;14.320;2023-02-24T14:39:20;5.70;;;2.10;;
77350;SDS011;66420;50.246;14.320;2023-02-24T14:42:10;6.47;;;2.33;;
77350;SDS011;66420;50.246;14.320;2023-02-24T14:44:57;3.90;;;1.70;;
77350;SDS011;66420;50.246;14.320;2023-02-24T14:47:43;4.53;;;2.10;;
77350;SDS011;66420;50.246;14.320;2023-02-24T14:50:31;5.75;;;2.47;;
77350;SDS011;66420;50.246;14.320;2023-02-24T14:53:17;6.57;;;2.40;;
77350;SDS011;66420;50.246;14.320;2023-02-24T14:56:05;5.93;;;2.05;;
77350;SDS011;66420;50.246;14.320;2023-02-24T14:58:53;6.57;;;2.22;;
77350;SDS011;66420;50.246;14.320;2023-02-24T15:01:46;7.28;;;2.03;;
77350;SDS011;66420;50.246;14.320;2023-02-24T15:07:28;6.60;;;2.20;;
77350;SDS011;66420;50.246;14.320;2023-02-24T15:10:26;4.53;;;2.10;;
77350;SDS011;66420;50.246;14.320;2023-02-24T15:16:36;4.60;;;1.90;;
77350;SDS011;66420;50.246;14.320;2023-02-24T15:22:26;4.85;;;2.10;;
77350;SDS011;66420;50.246;14.320;2023-02-24T15:25:20;3.67;;;1.80;;
77350;SDS011;66420;50.246;14.320;2023-02-24T15:28:19;7.18;;;2.08;;
77350;SDS011;66420;50.246;14.320;2023-02-24T15:31:17;4.57;;;2.03;;
77350;SDS011;66420;50.246;14.320;2023-02-24T15:34:04;4.20;;;1.95;;
77350;SDS011;66420;50.246;14.320;2023-02-24T15:36:50;4.68;;;2.10;;
77350;SDS011;66420;50.246;14.320;2023-02-24T15:39:41;10.32;;;2.15;;
77350;SDS011;66420;50.246;14.320;2023-02-24T15:42:29;6.25;;;2.08;;
77350;SDS011;66420;50.246;14.320;2023-02-24T15:45:35;6.93;;;2.80;;
77350;SDS011;66420;50.246;14.320;2023-02-24T15:48:22;6.28;;;2.55;;
77350;SDS011;66420;50.246;14.320;2023-02-24T15:51:15;6.40;;;2.20;;
77350;SDS011;66420;50.246;14.320;2023-02-24T15:54:17;6.90;;;2.60;;
77350;SDS011;66420;50.246;14.320;2023-02-24T15:57:05;5.35;;;2.50;;
77350;SDS011;66420;50.246;14.320;2023-02-24T15:59:50;5.78;;;2.13;;
77350;SDS011;66420;50.246;14.320;2023-02-24T16:02:34;5.32;;;2.53;;
77350;SDS011;66420;50.246;14.320;2023-02-24T16:05:19;7.50;;;2.47;;
77350;SDS011;66420;50.246;14.320;2023-02-24T16:08:04;5.47;;;2.40;;
77350;SDS011;66420;50.246;14.320;2023-02-24T16:10:49;6.57;;;2.42;;
77350;SDS011;66420;50.246;14.320;2023-02-24T16:13:36;6.78;;;2.40;;
77350;SDS011;66420;50.246;14.320;2023-02-24T16:16:21;10.20;;;2.88;;
77350;SDS011;66420;50.246;14.320;2023-02-24T16:19:09;8.40;;;3.03;;
77350;SDS011;66420;50.246;14.320;2023-02-24T16:21:56;5.95;;;2.78;;
77350;SDS011;66420;50.246;14.320;2023-02-24T16:24:41;6.57;;;2.53;;
77350;SDS011;66420;50.246;14.320;2023-02-24T16:27:27;6.97;;;2.67;;
77350;SDS011;66420;50.246;14.320;2023-02-24T16:30:16;7.05;;;2.97;;
77350;SDS011;66420;50.246;14.320;2023-02-24T16:33:01;10.68;;;3.78;;
77350;SDS011;66420;50.246;14.320;2023-02-24T16:35:46;11.70;;;4.88;;
77350;SDS011;66420;50.246;14.320;2023-02-24T16:38:30;8.68;;;3.92;;
77350;SDS011;66420;50.246;14.320;2023-02-24T16:41:14;10.98;;;4.03;;
77350;SDS011;66420;50.246;14.320;2023-02-24T16:43:59;10.95;;;4.57;;
77350;SDS011;66420;50.246;14.320;2023-02-24T16:46:44;15.55;;;5.80;;
77350;SDS011;66420;50.246;14.320;2023-02-24T16:49:29;13.13;;;5.78;;
77350;SDS011;66420;50.246;14.320;2023-02-24T16:52:14;11.38;;;5.32;;
77350;SDS011;66420;50.246;14.320;2023-02-24T16:55:03;13.30;;;5.22;;
77350;SDS011;66420;50.246;14.320;2023-02-24T16:57:48;16.73;;;5.07;;
77350;SDS011;66420;50.246;14.320;2023-02-24T17:00:32;9.48;;;3.80;;
77350;SDS011;66420;50.246;14.320;2023-02-24T17:03:59;10.38;;;4.22;;
77350;SDS011;66420;50.246;14.320;2023-02-24T17:06:26;7.70;;;3.05;;
77350;SDS011;66420;50.246;14.320;2023-02-24T17:09:12;7.85;;;3.25;;
77350;SDS011;66420;50.246;14.320;2023-02-24T17:11:58;7.03;;;3.28;;
77350;SDS011;66420;50.246;14.320;2023-02-24T17:14:43;11.50;;;3.97;;
77350;SDS011;66420;50.246;14.320;2023-02-24T17:17:28;8.13;;;3.67;;
77350;SDS011;66420;50.246;14.320;2023-02-24T17:20:13;8.43;;;4.03;;
77350;SDS011;66420;50.246;14.320;2023-02-24T17:23:01;8.18;;;3.70;;
77350;SDS011;66420;50.246;14.320;2023-02-24T17:25:46;8.98;;;3.90;;
77350;SDS011;66420;50.246;14.320;2023-02-24T17:28:35;6.72;;;3.47;;
77350;SDS011;66420;50.246;14.320;2023-02-24T17:31:19;10.55;;;4.32;;
77350;SDS011;66420;50.246;14.320;2023-02-24T17:34:04;9.90;;;3.92;;
77350;SDS011;66420;50.246;14.320;2023-02-24T17:36:49;10.63;;;4.55;;
77350;SDS011;66420;50.246;14.320;2023-02-24T17:39:34;12.15;;;6.63;;
77350;SDS011;66420;50.246;14.320;2023-02-24T17:42:18;8.02;;;4.18;;
77350;SDS011;66420;50.246;14.320;2023-02-24T17:45:03;10.10;;;4.30;;
77350;SDS011;66420;50.246;14.320;2023-02-24T17:47:49;8.48;;;3.72;;
77350;SDS011;66420;50.246;14.320;2023-02-24T17:50:35;10.25;;;5.05;;
77350;SDS011;66420;50.246;14.320;2023-02-24T17:53:20;10.27;;;4.70;;
77350;SDS011;66420;50.246;14.320;2023-02-24T17:56:05;12.07;;;5.88;;
77350;SDS011;66420;50.246;14.320;2023-02-24T17:58:51;10.75;;;4.60;;
77350;SDS011;66420;50.246;14.320;2023-02-24T18:01:44;9.68;;;4.45;;
77350;SDS011;66420;50.246;14.320;2023-02-24T18:04:28;10.73;;;4.53;;
77350;SDS011;66420;50.246;14.320;2023-02-24T18:07:13;13.13;;;5.30;;
77350;SDS011;66420;50.246;14.320;2023-02-24T18:09:58;11.52;;;4.97;;
77350;SDS011;66420;50.246;14.320;2023-02-24T18:12:43;11.60;;;4.65;;
77350;SDS011;66420;50.246;14.320;2023-02-24T18:15:28;11.27;;;4.35;;
77350;SDS011;66420;50.246;14.320;2023-02-24T18:18:12;8.35;;;4.10;;
77350;SDS011;66420;50.246;14.320;2023-02-24T18:21:01;11.57;;;4.22;;
77350;SDS011;66420;50.246;14.320;2023-02-24T18:23:46;9.65;;;4.32;;
77350;SDS011;66420;50.246;14.320;2023-02-24T18:26:32;11.48;;;4.20;;
77350;SDS011;66420;50.246;14.320;2023-02-24T18:29:17;10.48;;;4.30;;
77350;SDS011;66420;50.246;14.320;2023-02-24T18:32:01;13.57;;;4.88;;
77350;SDS011;66420;50.246;14.320;2023-02-24T18:34:46;19.05;;;8.43;;